createdAt,value
2023-01-10T04:04:17.642Z,100.00
2023-01-10T04:07:28.274Z,100.00
2023-01-10T04:10:38.479Z,100.00
2023-01-10T04:13:48.813Z,100.00
2023-01-10T04:16:58.759Z,100.00
2023-01-10T04:20:11.272Z,100.00
2023-01-10T04:23:21.143Z,100.00
2023-01-10T04:26:31.170Z,100.00
2023-01-10T04:29:41.154Z,100.00
2023-01-10T04:32:51.541Z,100.00
2023-01-10T04:36:03.044Z,100.00
2023-01-10T04:39:13.341Z,100.00
2023-01-10T04:42:23.488Z,100.00
2023-01-10T04:45:33.477Z,100.00
2023-01-10T04:48:43.468Z,100.00
2023-01-10T04:51:57.465Z,100.00
2023-01-10T04:55:07.932Z,100.00
2023-01-10T04:58:17.971Z,100.00
2023-01-10T05:01:28.076Z,100.00
2023-01-10T05:04:38.043Z,100.00
2023-01-10T05:07:49.474Z,98.79
2023-01-10T05:10:59.414Z,98.63
2023-01-10T05:14:09.353Z,98.37
2023-01-10T05:17:19.236Z,98.28
2023-01-10T05:20:29.275Z,98.28
2023-01-10T05:23:41.415Z,99.24
2023-01-10T05:26:51.301Z,98.77
2023-01-10T05:30:01.276Z,99.95
2023-01-10T05:33:11.426Z,99.54
2023-01-10T05:36:21.418Z,99.30
2023-01-10T05:39:32.615Z,99.54
2023-01-10T05:42:42.953Z,99.63
2023-01-10T05:45:53.425Z,99.72
2023-01-10T05:49:03.422Z,100.00
2023-01-10T05:52:13.414Z,98.63
2023-01-10T05:55:24.585Z,99.12
2023-01-10T05:58:34.542Z,100.00
2023-01-10T07:41:50.493Z,100.00
2023-01-10T07:45:00.483Z,100.00
2023-01-10T07:48:11.198Z,100.00
2023-01-10T07:51:21.238Z,100.00
2023-01-10T07:54:31.222Z,100.00
2023-01-10T07:57:42.615Z,100.00
2023-01-10T08:00:52.808Z,100.00
2023-01-10T08:04:03.089Z,99.99
2023-01-10T08:07:15.592Z,98.57
2023-01-10T08:10:26.069Z,97.04
2023-01-10T08:13:37.497Z,98.03
2023-01-10T08:16:47.661Z,97.37
2023-01-10T08:19:57.609Z,96.67
2023-01-10T08:23:07.724Z,96.08
2023-01-10T08:26:17.807Z,95.80
2023-01-10T08:29:29.576Z,94.71
2023-01-10T08:32:39.991Z,93.56
2023-01-10T08:35:50.182Z,93.04
2023-01-10T08:39:00.292Z,93.48
2023-01-10T08:42:10.543Z,93.56
2023-01-10T08:45:21.839Z,93.64
2023-01-10T08:48:31.751Z,93.38
2023-01-10T08:51:41.681Z,91.57
2023-01-10T08:54:51.818Z,90.79
2023-01-10T08:58:02.099Z,89.55
2023-01-10T09:01:14.553Z,90.11
2023-01-10T09:04:24.523Z,90.20
2023-01-10T09:07:34.600Z,88.97
2023-01-10T09:10:44.716Z,89.01
2023-01-10T09:13:54.735Z,89.65
2023-01-10T09:17:06.024Z,90.03
2023-01-10T09:20:16.308Z,89.99
2023-01-10T09:23:26.353Z,91.14
2023-01-10T09:26:36.366Z,91.71
2023-01-10T09:29:46.216Z,91.02
2023-01-10T09:32:58.802Z,90.53
2023-01-10T09:36:10.341Z,90.25
2023-01-10T09:39:21.620Z,89.53
2023-01-10T09:42:44.552Z,88.18
2023-01-10T09:46:02.463Z,87.62
2023-01-10T09:49:22.003Z,86.86
2023-01-10T09:52:35.659Z,87.39
2023-01-10T09:55:51.233Z,86.81
2023-01-10T09:59:03.138Z,87.41
2023-01-10T10:02:25.719Z,86.49
2023-01-10T10:05:37.741Z,85.37
2023-01-10T10:08:48.767Z,83.25
2023-01-10T10:12:11.719Z,81.34
2023-01-10T10:15:30.168Z,80.16
2023-01-10T10:18:50.356Z,79.50
2023-01-10T10:22:13.496Z,79.00
2023-01-10T10:25:41.136Z,81.33
2023-01-10T10:29:08.475Z,80.33
2023-01-10T10:32:32.246Z,80.66
2023-01-10T10:35:46.538Z,81.08
2023-01-10T10:39:00.888Z,78.63
2023-01-10T10:42:14.524Z,77.57
2023-01-10T10:45:30.761Z,78.72
2023-01-10T10:48:43.639Z,78.48
2023-01-10T10:51:55.082Z,76.33
2023-01-10T10:55:08.624Z,76.85
2023-01-10T10:58:19.811Z,77.98
2023-01-10T11:01:30.189Z,76.83
2023-01-10T11:04:41.243Z,74.71
2023-01-10T11:07:54.244Z,75.36
2023-01-10T11:11:16.889Z,75.47
2023-01-10T11:14:42.483Z,76.42
2023-01-10T11:18:05.765Z,75.19
2023-01-10T11:21:21.256Z,74.55
2023-01-10T11:24:34.873Z,73.48
2023-01-10T11:27:48.988Z,74.10
2023-01-10T11:31:00.915Z,74.27
2023-01-10T11:34:23.337Z,74.16
2023-01-10T11:37:35.713Z,76.10
2023-01-10T11:40:55.873Z,77.28
2023-01-10T11:44:19.572Z,74.47
2023-01-10T11:47:30.002Z,74.15
2023-01-10T11:50:50.384Z,73.58
2023-01-10T11:54:02.239Z,73.68
2023-01-10T11:57:19.423Z,73.85
2023-01-10T12:00:38.020Z,72.51
2023-01-10T12:03:48.426Z,72.01
2023-01-10T12:07:03.256Z,71.05
2023-01-10T12:10:21.547Z,70.65
2023-01-10T12:13:43.656Z,70.81
2023-01-10T12:17:02.309Z,72.67
2023-01-10T12:20:16.161Z,74.09
2023-01-10T12:23:26.855Z,73.72
2023-01-10T12:26:37.565Z,74.26
2023-01-10T12:29:55.131Z,73.56
2023-01-10T12:33:12.730Z,72.78
2023-01-10T12:36:33.446Z,72.92
2023-01-10T12:39:48.195Z,75.30
2023-01-10T12:43:14.902Z,76.72
2023-01-10T12:47:00.115Z,77.13
2023-01-10T12:50:07.116Z,78.32
2023-01-10T12:53:30.331Z,80.03
2023-01-10T12:56:41.149Z,78.77
2023-01-10T12:59:53.104Z,79.71
2023-01-10T13:03:07.399Z,79.40
2023-01-10T13:06:26.133Z,80.21
2023-01-10T13:09:36.436Z,81.29
2023-01-10T13:12:51.760Z,81.03
2023-01-10T13:16:18.898Z,81.30
2023-01-10T13:19:29.452Z,80.50
2023-01-10T13:22:40.654Z,80.53
2023-01-10T13:25:56.971Z,78.50
2023-01-10T13:29:13.282Z,77.85
2023-01-10T13:32:27.786Z,75.82
2023-01-10T13:35:42.098Z,77.57
2023-01-10T13:38:56.225Z,77.03
2023-01-10T13:42:36.105Z,78.20
2023-01-10T13:45:46.104Z,77.53
2023-01-10T13:49:23.074Z,78.11
2023-01-10T13:52:34.395Z,78.54
2023-01-10T13:55:57.347Z,78.35
2023-01-10T13:59:24.568Z,79.85
2023-01-10T14:02:34.642Z,80.14
2023-01-10T14:05:49.479Z,80.36
2023-01-10T14:09:02.589Z,79.65
2023-01-10T14:12:26.402Z,79.54
2023-01-10T14:15:40.389Z,80.49
2023-01-10T14:18:50.799Z,81.55
2023-01-10T14:22:03.091Z,80.97
2023-01-10T14:25:20.159Z,81.05
2023-01-10T14:28:34.405Z,80.93
2023-01-10T14:31:47.202Z,80.49
2023-01-10T14:34:57.780Z,80.97
2023-01-10T14:38:09.865Z,81.86
2023-01-10T14:41:25.004Z,82.09
2023-01-10T14:44:45.833Z,82.52
2023-01-10T14:47:55.861Z,81.67
2023-01-10T14:51:17.348Z,81.17
2023-01-10T14:54:29.675Z,81.41
2023-01-10T14:57:39.840Z,81.85
2023-01-10T15:00:52.429Z,80.75
2023-01-10T15:04:03.127Z,82.56
2023-01-10T15:07:16.940Z,82.58
2023-01-10T15:10:31.049Z,83.20
2023-01-10T15:13:51.891Z,82.64
2023-01-10T15:17:06.414Z,83.20
2023-01-10T15:20:17.919Z,83.12
2023-01-10T15:23:35.906Z,83.96
2023-01-10T15:26:46.060Z,83.53
2023-01-10T15:29:56.993Z,84.29
2023-01-10T15:33:14.320Z,83.83
2023-01-10T15:36:29.507Z,83.42
2023-01-10T15:39:41.766Z,84.75
2023-01-10T15:42:52.005Z,84.57
2023-01-10T15:46:03.805Z,83.56
2023-01-10T15:49:25.232Z,82.27
2023-01-10T15:52:35.458Z,84.26
2023-01-10T15:55:48.214Z,83.89
2023-01-10T15:59:00.136Z,83.36
2023-01-10T16:02:22.964Z,83.73
2023-01-10T16:05:34.319Z,84.08
2023-01-10T16:08:49.884Z,83.76
2023-01-10T16:12:10.814Z,84.48
2023-01-10T16:15:23.293Z,84.52
2023-01-10T16:18:33.273Z,83.90
2023-01-10T16:21:47.740Z,84.09
2023-01-10T16:24:57.634Z,84.74
2023-01-10T16:28:10.083Z,84.87
2023-01-10T16:31:20.074Z,85.62
2023-01-10T16:34:33.992Z,85.57
2023-01-10T16:37:45.318Z,85.95
2023-01-10T16:40:58.948Z,85.58
2023-01-10T16:44:08.371Z,86.10
2023-01-10T16:47:18.402Z,86.18
2023-01-10T16:50:28.829Z,85.76
2023-01-10T16:53:40.346Z,84.90
2023-01-10T16:56:51.077Z,85.43
2023-01-10T17:00:01.095Z,85.96
2023-01-10T17:03:16.461Z,86.55
2023-01-10T17:06:26.660Z,86.97
2023-01-10T17:09:37.974Z,87.19
2023-01-10T17:12:48.316Z,86.54
2023-01-10T17:15:58.595Z,87.62
2023-01-10T17:19:09.678Z,86.88
2023-01-10T17:22:19.942Z,87.96
2023-01-10T17:25:31.221Z,88.71
2023-01-10T17:28:41.809Z,89.04
2023-01-10T17:31:51.937Z,89.29
2023-01-10T17:35:02.020Z,91.13
2023-01-10T17:38:13.429Z,91.26
2023-01-10T17:41:24.685Z,92.52
2023-01-10T17:44:34.581Z,93.11
2023-01-10T17:47:44.579Z,91.77
2023-01-10T17:50:58.400Z,92.13
2023-01-10T17:54:09.123Z,92.55
2023-01-10T17:57:20.351Z,91.52
2023-01-10T18:00:30.655Z,92.90
2023-01-10T18:03:40.841Z,92.39
2023-01-10T18:06:52.410Z,92.05
2023-01-10T18:10:02.377Z,91.11
2023-01-10T18:13:14.994Z,91.20
2023-01-10T18:16:27.178Z,90.65
2023-01-10T18:19:37.775Z,90.73
2023-01-10T18:22:58.612Z,91.05
2023-01-10T18:26:10.810Z,90.41
2023-01-10T18:29:22.102Z,89.52
2023-01-10T18:32:32.748Z,88.87
2023-01-10T18:35:42.914Z,89.16
2023-01-10T18:38:53.406Z,89.13
2023-01-10T18:42:03.469Z,89.32
2023-01-10T18:45:14.891Z,89.08
2023-01-10T18:48:25.935Z,88.25
2023-01-10T18:51:36.085Z,88.59
2023-01-10T18:54:47.543Z,89.43
2023-01-10T18:57:57.703Z,89.34
2023-01-10T19:01:11.842Z,89.51
2023-01-10T19:04:21.937Z,89.29
2023-01-10T19:07:31.837Z,88.95
2023-01-10T19:11:03.671Z,88.96
2023-01-10T19:14:13.843Z,88.60
2023-01-10T19:17:26.006Z,89.04
2023-01-10T19:20:36.004Z,89.06
2023-01-10T19:23:47.742Z,89.31
2023-01-10T19:26:57.926Z,90.23
2023-01-10T19:30:10.042Z,90.46
2023-01-10T19:33:21.661Z,91.28
2023-01-10T19:36:34.645Z,92.56
2023-01-10T19:39:44.730Z,92.68
2023-01-10T19:42:54.938Z,93.75
2023-01-10T19:46:08.898Z,93.06
2023-01-10T19:49:20.725Z,93.59
2023-01-10T19:52:30.776Z,94.69
2023-01-10T19:55:40.854Z,94.81
2023-01-10T19:58:51.752Z,96.80
2023-01-10T20:02:02.404Z,96.33
2023-01-10T20:05:13.840Z,96.33
2023-01-10T20:08:23.975Z,96.21
2023-01-10T20:11:38.039Z,96.82
2023-01-10T20:14:49.386Z,98.07
2023-01-10T20:17:59.255Z,99.98
2023-01-10T20:21:12.861Z,100.00
2023-01-10T20:24:23.151Z,100.00
2023-01-10T20:27:33.126Z,100.00
2023-01-10T20:30:43.210Z,100.00
2023-01-10T20:33:53.278Z,100.00
2023-01-10T20:37:04.716Z,100.00
2023-01-10T20:40:15.079Z,100.00
2023-01-10T20:43:25.428Z,100.00
2023-01-10T20:46:36.789Z,100.00
2023-01-10T20:49:47.099Z,100.00
2023-01-10T20:52:58.972Z,100.00
2023-01-10T20:56:12.551Z,100.00
2023-01-10T20:59:24.532Z,100.00
2023-01-10T21:02:36.029Z,100.00
2023-01-10T21:05:50.573Z,100.00
